Time;durP1;ratioP1;P1;durP2;ratioP2;P2;SDS_P1;SDS_P2;PMS_P1;PMS_P2;Temp;Humidity;BMP_temperature;BMP_pressure;BME280_temperature;BME280_humidity;BME280_pressure;Samples;Min_cycle;Max_cycle;Signal;HPM_P1;HPM_P2
2022/05/31 00:00:53;;;;;;;11.45;10.38;;;;;;;8.54;97.49;101339.03;4966350;28;20089;-65
2022/05/31 00:03:18;;;;;;;11.27;10.07;;;;;;;8.51;97.18;101333.69;4968644;28;20369;-65
2022/05/31 00:05:44;;;;;;;11.48;10.30;;;;;;;8.47;97.38;101337.81;4968503;28;20039;-65
2022/05/31 00:08:10;;;;;;;13.77;10.93;;;;;;;8.43;97.56;101335.03;4968039;28;20034;-65
2022/05/31 00:10:36;;;;;;;13.13;11.27;;;;;;;8.38;97.59;101333.09;4968717;28;20023;-64
2022/05/31 00:13:01;;;;;;;15.32;10.10;;;;;;;8.36;97.68;101323.53;4968194;28;20030;-65
2022/05/31 00:15:27;;;;;;;12.45;10.20;;;;;;;8.32;97.57;101322.50;4968760;28;20109;-65
2022/05/31 00:17:52;;;;;;;11.27;9.32;;;;;;;8.29;98.45;101317.19;4968584;28;20529;-64
2022/05/31 00:20:17;;;;;;;11.57;9.50;;;;;;;8.25;97.61;101320.41;4968372;28;20047;-65
2022/05/31 00:22:44;;;;;;;12.10;9.98;;;;;;;8.23;98.34;101327.19;4967828;28;20039;-64
2022/05/31 00:25:10;;;;;;;11.52;10.40;;;;;;;8.22;98.55;101320.28;4966137;28;20422;-65
2022/05/31 00:27:35;;;;;;;10.65;9.57;;;;;;;8.20;98.50;101321.88;4967230;28;20034;-65
2022/05/31 00:30:01;;;;;;;10.60;8.88;;;;;;;8.16;98.57;101332.06;4967814;28;20089;-65
2022/05/31 00:32:32;;;;;;;11.50;9.55;;;;;;;8.15;99.45;101339.72;4967860;28;20114;-65
2022/05/31 00:35:03;;;;;;;9.63;8.63;;;;;;;8.12;99.09;101336.97;4965989;28;20076;-65
2022/05/31 00:37:28;;;;;;;9.02;8.23;;;;;;;8.08;98.72;101330.78;4968407;28;20044;-64
2022/05/31 00:39:53;;;;;;;11.50;9.10;;;;;;;8.06;98.96;101334.97;4968505;28;20097;-65
2022/05/31 00:42:22;;;;;;;11.07;9.63;;;;;;;8.01;99.38;101337.34;4967853;28;20110;-65
2022/05/31 00:44:48;;;;;;;12.95;8.80;;;;;;;7.97;100.00;101327.66;4967804;28;20023;-64
2022/05/31 00:47:29;;;;;;;12.20;9.55;;;;;;;7.95;100.00;101326.69;4968420;28;20471;-64
2022/05/31 00:49:59;;;;;;;;;;;;;;;7.92;100.00;101331.69;4968199;28;20015;-64
2022/05/31 00:52:31;;;;;;;10.88;9.88;;;;;;;7.88;100.00;101332.38;4967840;28;20094;-64
2022/05/31 00:55:00;;;;;;;11.02;10.02;;;;;;;7.84;100.00;101333.91;4968212;28;20219;-65
2022/05/31 00:57:26;;;;;;;12.77;9.63;;;;;;;7.80;100.00;101337.13;4965331;28;20041;-65
2022/05/31 00:59:58;;;;;;;11.55;10.32;;;;;;;7.77;100.00;101331.81;4968121;28;20057;-65
2022/05/31 01:02:24;;;;;;;13.02;9.75;;;;;;;7.75;100.00;101329.16;4967600;28;20023;-64
2022/05/31 01:04:55;;;;;;;10.23;8.98;;;;;;;7.73;100.00;101329.88;4967137;28;20019;-64
2022/05/31 01:07:21;;;;;;;12.35;9.35;;;;;;;7.72;100.00;101333.28;4964922;28;20027;-64
2022/05/31 01:09:46;;;;;;;9.73;8.82;;;;;;;7.72;100.00;101325.53;4967065;28;20031;-65
2022/05/31 01:12:15;;;;;;;9.75;8.60;;;;;;;7.71;100.00;101331.50;4967643;28;20023;-64
2022/05/31 01:14:41;;;;;;;9.93;8.85;;;;;;;7.71;100.00;101326.31;4967440;28;20573;-64
2022/05/31 01:17:09;;;;;;;11.40;9.75;;;;;;;7.70;100.00;101328.00;4966666;28;20030;-65
2022/05/31 01:22:18;;;;;;;11.07;9.50;;;;;;;7.62;100.00;101325.06;4967756;28;20045;-65
2022/05/31 01:24:49;;;;;;;10.77;9.32;;;;;;;7.60;100.00;101311.19;4967072;28;20459;-65
2022/05/31 01:27:32;;;;;;;10.63;9.52;;;;;;;7.57;100.00;101321.34;4967343;28;20102;-64
2022/05/31 01:30:00;;;;;;;9.93;8.95;;;;;;;7.54;100.00;101318.59;4967466;28;20378;-65
2022/05/31 01:32:25;;;;;;;9.95;8.95;;;;;;;7.51;100.00;101316.75;4964226;28;20475;-65
2022/05/31 01:34:59;;;;;;;9.93;8.93;;;;;;;7.48;100.00;101306.28;4967266;28;20026;-65
2022/05/31 01:37:35;;;;;;;11.27;10.15;;;;;;;7.45;100.00;101313.84;4967112;28;20046;-64
2022/05/31 01:40:07;;;;;;;12.43;9.68;;;;;;;7.42;100.00;101319.75;4966689;28;20365;-65
2022/05/31 01:42:38;;;;;;;10.32;9.43;;;;;;;7.38;100.00;101312.63;4962996;28;20050;-64
2022/05/31 01:45:18;;;;;;;10.15;9.15;;;;;;;7.36;100.00;101318.53;4966965;28;20031;-65
2022/05/31 01:47:44;;;;;;;10.55;9.55;;;;;;;7.33;100.00;101314.09;4966680;28;20019;-64
2022/05/31 01:50:15;;;;;;;11.20;10.00;;;;;;;7.30;100.00;101316.50;4967601;28;20585;-64
2022/05/31 01:52:41;;;;;;;10.65;9.65;;;;;;;7.29;100.00;101312.16;4966984;28;20085;-64
2022/05/31 01:55:08;;;;;;;10.85;9.85;;;;;;;7.27;100.00;101314.66;4967011;28;20088;-64
2022/05/31 01:57:34;;;;;;;11.30;9.68;;;;;;;7.25;100.00;101323.13;4949675;28;20035;-66
2022/05/31 02:00:06;;;;;;;10.45;9.18;;;;;;;7.21;100.00;101316.91;4967018;28;20546;-66
2022/05/31 02:02:32;;;;;;;10.30;9.00;;;;;;;7.18;100.00;101316.72;4967079;28;20030;-66
2022/05/31 02:04:57;;;;;;;11.25;9.43;;;;;;;7.16;100.00;101310.63;4964502;28;20057;-66
2022/05/31 02:07:25;;;;;;;11.35;8.98;;;;;;;7.15;100.00;101314.00;4967193;28;20038;-66
2022/05/31 02:09:52;;;;;;;10.02;9.05;;;;;;;7.15;100.00;101312.31;4967483;28;20027;-66
2022/05/31 02:12:20;;;;;;;11.20;9.77;;;;;;;7.15;100.00;101314.00;4967425;28;20027;-66
2022/05/31 02:14:46;;;;;;;14.77;10.00;;;;;;;7.14;100.00;101310.50;4964999;28;20035;-66
2022/05/31 02:17:11;;;;;;;10.02;9.05;;;;;;;7.13;100.00;101307.88;4970777;28;20390;-66
2022/05/31 02:19:38;;;;;;;10.40;9.35;;;;;;;7.14;100.00;101313.09;4970886;28;20077;-66
2022/05/31 02:22:06;;;;;;;11.27;10.00;;;;;;;7.13;100.00;101311.34;4970504;28;20042;-65
2022/05/31 02:24:32;;;;;;;10.93;9.75;;;;;;;7.10;100.00;101306.03;4970582;28;20030;-64
2022/05/31 02:26:58;;;;;;;10.02;9.05;;;;;;;7.12;100.00;101307.00;4970095;28;20081;-64
2022/05/31 02:29:29;;;;;;;10.00;9.10;;;;;;;7.13;100.00;101294.97;4970421;28;20031;-65
2022/05/31 02:31:57;;;;;;;9.90;8.88;;;;;;;7.16;100.00;101303.75;4970591;28;20023;-64
2022/05/31 02:34:24;;;;;;;9.63;8.65;;;;;;;7.16;100.00;101293.44;4970846;28;20376;-64
2022/05/31 02:36:51;;;;;;;10.20;9.20;;;;;;;7.20;100.00;101300.56;4967446;28;20262;-64
2022/05/31 02:39:17;;;;;;;9.75;8.75;;;;;;;7.21;100.00;101299.72;4968050;28;20023;-64
2022/05/31 02:41:42;;;;;;;9.60;8.68;;;;;;;7.24;100.00;101298.13;4970703;28;20054;-65
2022/05/31 02:44:08;;;;;;;11.18;8.43;;;;;;;7.26;100.00;101292.25;4969938;28;20076;-64
2022/05/31 02:46:35;;;;;;;10.63;9.27;;;;;;;7.31;100.00;101287.34;4970314;28;20078;-64
2022/05/31 02:49:01;;;;;;;8.85;8.05;;;;;;;7.35;100.00;101294.44;4967100;28;20023;-64
2022/05/31 02:51:27;;;;;;;9.45;8.55;;;;;;;7.38;100.00;101297.16;4969889;28;20019;-65
2022/05/31 02:53:52;;;;;;;10.68;9.40;;;;;;;7.39;100.00;101286.06;4970102;28;20554;-64
2022/05/31 02:56:18;;;;;;;8.55;7.75;;;;;;;7.40;100.00;101292.09;4969763;28;20023;-64
2022/05/31 02:58:44;;;;;;;9.38;8.30;;;;;;;7.39;100.00;101282.59;4970683;28;20099;-65
2022/05/31 03:01:20;;;;;;;9.30;8.32;;;;;;;7.42;100.00;101281.06;4967543;28;20081;-64
2022/05/31 03:03:45;;;;;;;9.18;8.00;;;;;;;7.43;100.00;101290.56;4969537;28;20034;-64
2022/05/31 03:06:10;;;;;;;9.50;8.60;;;;;;;7.45;100.00;101283.78;4969318;28;20050;-64
2022/05/31 03:08:36;;;;;;;8.60;7.90;;;;;;;7.47;100.00;101283.88;4969998;28;20463;-64
2022/05/31 03:11:02;;;;;;;8.68;7.40;;;;;;;7.45;100.00;101283.78;4970614;28;20027;-64
2022/05/31 03:13:29;;;;;;;7.90;7.10;;;;;;;7.45;100.00;101278.63;4969554;28;20074;-64
2022/05/31 03:16:00;;;;;;;8.65;6.95;;;;;;;7.44;100.00;101284.59;4969217;28;20446;-64
2022/05/31 03:18:29;;;;;;;;;;;;;;;7.49;100.00;101283.94;4969849;28;20034;-64
2022/05/31 03:20:57;;;;;;;8.40;7.38;;;;;;;7.50;100.00;101281.44;4969113;28;19944;-64
2022/05/31 03:23:29;;;;;;;7.93;7.13;;;;;;;7.53;100.00;101283.31;4965644;28;20023;-64
2022/05/31 03:25:58;;;;;;;8.45;7.65;;;;;;;7.54;100.00;101280.81;4965458;28;20558;-65
2022/05/31 03:28:25;;;;;;;8.52;7.72;;;;;;;7.56;100.00;101279.19;4966962;28;20536;-64
2022/05/31 03:30:50;;;;;;;8.38;7.57;;;;;;;7.60;100.00;101279.34;4965684;28;20481;-64
2022/05/31 03:33:16;;;;;;;8.27;7.45;;;;;;;7.61;100.00;101279.41;4967521;28;20266;-64
2022/05/31 03:35:42;;;;;;;8.48;7.68;;;;;;;7.63;100.00;101276.91;4968527;28;20033;-64
2022/05/31 03:38:07;;;;;;;8.25;7.35;;;;;;;7.65;100.00;101276.19;4967782;28;20022;-65
2022/05/31 03:43:16;;;;;;;8.38;7.57;;;;;;;7.71;100.00;101277.31;4967615;28;20077;-64
2022/05/31 03:45:42;;;;;;;7.53;6.90;;;;;;;7.72;100.00;101279.09;4967325;28;20467;-64
2022/05/31 03:48:09;;;;;;;8.23;7.43;;;;;;;7.73;100.00;101274.00;4966393;28;20031;-64
2022/05/31 03:50:38;;;;;;;10.50;7.30;;;;;;;7.76;100.00;101274.16;4967534;28;20037;-64
2022/05/31 03:53:04;;;;;;;8.43;7.15;;;;;;;7.77;100.00;101277.63;4968511;28;21191;-64
2022/05/31 03:55:29;;;;;;;8.10;7.40;;;;;;;7.76;100.00;101279.31;4965693;28;20038;-64
2022/05/31 03:57:55;;;;;;;9.40;7.32;;;;;;;7.78;100.00;101274.25;4967153;28;20026;-64
2022/05/31 04:00:20;;;;;;;8.57;7.82;;;;;;;7.79;100.00;101270.84;4969145;28;20065;-65
2022/05/31 04:02:46;;;;;;;12.38;8.30;;;;;;;7.79;100.00;101276.88;4968959;28;20027;-64
2022/05/31 04:05:12;;;;;;;8.45;7.55;;;;;;;7.81;100.00;101266.63;4969046;28;20037;-64
2022/05/31 04:07:38;;;;;;;8.52;7.68;;;;;;;7.82;100.00;101278.75;4966418;28;20034;-65
2022/05/31 04:10:05;;;;;;;9.10;8.15;;;;;;;7.81;100.00;101271.81;4968671;28;20600;-65
2022/05/31 04:12:33;;;;;;;8.20;7.38;;;;;;;7.80;100.00;101260.63;4968388;28;20044;-65
2022/05/31 04:14:58;;;;;;;8.13;7.32;;;;;;;7.83;100.00;101269.28;4968058;28;20035;-64
2022/05/31 04:17:23;;;;;;;9.75;8.55;;;;;;;7.86;100.00;101269.47;4966173;28;20121;-64
2022/05/31 04:19:49;;;;;;;7.95;6.93;;;;;;;7.87;100.00;101271.22;4968068;28;20043;-64
2022/05/31 04:22:14;;;;;;;8.02;7.22;;;;;;;7.89;100.00;101264.47;4967975;28;20120;-64
2022/05/31 04:24:39;;;;;;;8.77;7.50;;;;;;;7.91;100.00;101274.06;4968426;28;20058;-64
2022/05/31 04:27:04;;;;;;;10.80;7.57;;;;;;;7.96;100.00;101271.69;4968315;28;20033;-64
2022/05/31 04:29:30;;;;;;;8.85;7.95;;;;;;;8.00;100.00;101272.72;4966018;28;20031;-64
2022/05/31 04:31:55;;;;;;;8.57;7.78;;;;;;;8.03;100.00;101267.72;4967833;28;20064;-64
2022/05/31 04:34:21;;;;;;;8.80;7.43;;;;;;;8.06;100.00;101265.28;4968108;28;20033;-64
2022/05/31 04:36:46;;;;;;;9.60;7.95;;;;;;;8.10;100.00;101271.47;4968911;28;20035;-64
2022/05/31 04:39:11;;;;;;;8.35;7.38;;;;;;;8.13;100.00;101272.50;4968747;28;20026;-64
2022/05/31 04:41:36;;;;;;;11.27;8.00;;;;;;;8.14;100.00;101271.72;4968411;28;20049;-64
2022/05/31 04:44:04;;;;;;;11.00;8.32;;;;;;;8.16;100.00;101275.28;4968531;28;20031;-64
2022/05/31 04:46:32;;;;;;;8.85;7.70;;;;;;;8.21;100.00;101272.00;4967654;28;20034;-64
2022/05/31 04:48:59;;;;;;;10.30;8.38;;;;;;;8.24;100.00;101261.84;4967241;28;20031;-65
2022/05/31 04:51:27;;;;;;;11.93;7.40;;;;;;;8.28;100.00;101256.00;4965539;28;20038;-64
2022/05/31 04:53:53;;;;;;;9.32;7.93;;;;;;;8.33;100.00;101257.09;4965398;28;20061;-64
2022/05/31 04:56:19;;;;;;;10.02;8.50;;;;;;;8.37;100.00;101255.56;4966919;28;20486;-64
2022/05/31 04:58:46;;;;;;;11.30;7.65;;;;;;;8.41;100.00;101260.06;4967266;28;20058;-65
2022/05/31 05:01:12;;;;;;;9.38;8.30;;;;;;;8.44;99.90;101256.75;4967546;28;20399;-64
2022/05/31 05:03:37;;;;;;;8.93;8.05;;;;;;;8.48;99.65;101261.22;4967722;28;20027;-64
2022/05/31 05:06:05;;;;;;;9.00;8.10;;;;;;;8.51;99.61;101262.25;4967620;28;20023;-64
2022/05/31 05:08:32;;;;;;;9.07;8.18;;;;;;;8.56;99.68;101249.63;4964073;28;20314;-64
2022/05/31 05:11:01;;;;;;;11.25;8.48;;;;;;;8.62;99.30;101255.06;4967629;28;20575;-64
2022/05/31 05:13:27;;;;;;;9.75;8.60;;;;;;;8.65;99.14;101252.59;4962966;28;20030;-64
2022/05/31 05:15:54;;;;;;;8.98;7.85;;;;;;;8.70;98.59;101251.94;4964055;28;20482;-64
2022/05/31 05:18:20;;;;;;;10.75;8.57;;;;;;;8.74;98.62;101251.28;4966172;28;20022;-64
2022/05/31 05:20:45;;;;;;;9.40;8.50;;;;;;;8.78;97.78;101255.75;4966055;28;20058;-64
2022/05/31 05:23:10;;;;;;;11.18;8.75;;;;;;;8.78;98.24;101250.59;4967607;28;20092;-64
2022/05/31 05:25:36;;;;;;;10.20;9.20;;;;;;;8.77;98.52;101248.84;4967401;28;20030;-64
2022/05/31 05:30:38;;;;;;;9.77;8.88;;;;;;;8.82;98.25;101254.19;4967835;28;20198;-64
2022/05/31 05:30:47;;;;;;;11.60;10.40;;;;;;;8.83;99.02;101256.84;4967675;28;20202;-64
2022/05/31 05:33:12;;;;;;;10.38;9.32;;;;;;;8.85;99.54;101249.19;4967856;28;20030;-64
2022/05/31 05:35:37;;;;;;;9.27;8.38;;;;;;;8.91;99.14;101258.91;4963752;28;20039;-64
2022/05/31 05:38:04;;;;;;;12.25;10.07;;;;;;;8.95;99.30;101253.06;4955663;28;20464;-64
2022/05/31 05:40:29;;;;;;;12.68;9.48;;;;;;;9.00;98.55;101259.31;4965306;28;20407;-64
2022/05/31 05:42:54;;;;;;;10.55;9.05;;;;;;;9.06;98.30;101254.44;4967712;28;20027;-64
2022/05/31 05:45:20;;;;;;;11.65;10.45;;;;;;;9.10;98.20;101253.75;4967381;28;20023;-64
2022/05/31 05:47:45;;;;;;;10.95;9.55;;;;;;;9.17;99.47;101248.88;4967892;28;20034;-64
2022/05/31 05:50:12;;;;;;;13.35;10.07;;;;;;;9.23;98.86;101251.72;4969300;28;20027;-64
2022/05/31 05:52:39;;;;;;;12.75;11.55;;;;;;;9.29;99.23;101252.00;4971594;28;20059;-63
2022/05/31 05:55:05;;;;;;;13.93;10.02;;;;;;;9.32;99.24;101246.06;4970832;28;20054;-62
2022/05/31 05:57:31;;;;;;;12.70;10.10;;;;;;;9.36;98.64;101254.03;4971629;28;20530;-63
2022/05/31 05:59:57;;;;;;;11.05;9.95;;;;;;;9.41;97.01;101261.13;4972021;28;20106;-63
2022/05/31 06:02:31;;;;;;;12.98;10.38;;;;;;;9.43;97.94;101257.75;4971341;28;20085;-63
2022/05/31 06:05:10;;;;;;;14.00;9.85;;;;;;;9.48;97.17;101255.38;4970614;28;20015;-63
2022/05/31 06:07:44;;;;;;;11.73;10.18;;;;;;;9.53;97.20;101259.06;4970370;28;20476;-63
2022/05/31 06:10:44;;;;;;;12.07;10.68;;;;;;;9.57;97.21;101258.34;4970529;28;20574;-63
2022/05/31 06:13:16;;;;;;;11.70;10.45;;;;;;;9.66;97.45;101252.69;4962709;28;20049;-63
2022/05/31 06:15:45;;;;;;;;;;;;;;;9.73;98.42;101256.44;4971790;28;20110;-63
2022/05/31 06:18:15;;;;;;;12.10;9.90;;;;;;;9.78;98.02;101251.44;4971310;28;19917;-63
2022/05/31 06:20:45;;;;;;;14.23;10.32;;;;;;;9.85;97.36;101246.59;4970652;28;20411;-63
2022/05/31 06:23:10;;;;;;;12.85;10.10;;;;;;;9.92;95.98;101255.50;4972147;28;20030;-63
2022/05/31 06:25:36;;;;;;;11.85;10.57;;;;;;;10.01;95.83;101252.41;4953687;28;20110;-63
2022/05/31 06:28:01;;;;;;;11.40;10.18;;;;;;;10.09;96.40;101245.81;4971215;28;20022;-63
2022/05/31 06:30:26;;;;;;;13.23;11.90;;;;;;;10.23;95.97;101252.38;4970673;28;20439;-62
2022/05/31 06:32:52;;;;;;;12.80;11.50;;;;;;;10.43;96.93;101255.78;4971380;28;20027;-63
2022/05/31 06:35:17;;;;;;;12.43;11.18;;;;;;;10.68;95.31;101256.75;4971152;28;20391;-63
2022/05/31 06:37:42;;;;;;;13.73;11.05;;;;;;;10.93;93.33;101258.56;4970801;28;20031;-64
2022/05/31 06:40:09;;;;;;;12.35;11.25;;;;;;;11.11;91.96;101256.59;4970922;28;20023;-63
2022/05/31 06:42:34;;;;;;;12.68;11.48;;;;;;;11.31;90.89;101253.81;4970714;28;20026;-62
2022/05/31 06:44:59;;;;;;;14.70;12.20;;;;;;;11.43;91.02;101263.75;4971291;28;20073;-63
2022/05/31 06:47:25;;;;;;;11.65;10.50;;;;;;;11.61;90.75;101261.81;4970676;28;20064;-63
2022/05/31 06:49:51;;;;;;;11.80;10.57;;;;;;;11.77;89.81;101254.53;4971003;28;20093;-63
2022/05/31 06:57:46;;;;;;;10.88;9.48;;;;;;;12.32;85.66;101253.72;4970649;28;20524;-63
2022/05/31 07:00:21;;;;;;;9.07;8.18;;;;;;;12.43;82.45;101252.31;4970498;28;20495;-63
2022/05/31 07:02:48;;;;;;;8.85;8.05;;;;;;;12.44;80.75;101253.22;4970725;28;20427;-63
2022/05/31 07:05:14;;;;;;;8.82;7.38;;;;;;;12.44;80.01;101248.91;4970697;28;20023;-63
2022/05/31 07:07:40;;;;;;;10.55;8.05;;;;;;;12.40;79.07;101244.44;4970297;28;20026;-63
2022/05/31 07:10:07;;;;;;;7.43;6.75;;;;;;;12.57;78.89;101249.28;4970546;28;20037;-63
2022/05/31 07:12:33;;;;;;;7.05;6.45;;;;;;;12.98;80.01;101251.34;4970693;28;20097;-63
2022/05/31 07:14:58;;;;;;;7.80;7.10;;;;;;;13.44;79.72;101246.53;4970376;28;20033;-63
2022/05/31 07:17:24;;;;;;;8.18;7.38;;;;;;;13.86;77.14;101246.75;4970384;28;20278;-63
2022/05/31 07:19:49;;;;;;;7.38;6.45;;;;;;;14.14;71.44;101244.78;4970364;28;20043;-63
2022/05/31 07:22:15;;;;;;;7.20;5.85;;;;;;;14.41;71.77;101251.50;4970503;28;20077;-63
2022/05/31 07:24:40;;;;;;;7.22;6.53;;;;;;;14.85;72.48;101238.53;4970381;28;20037;-63
2022/05/31 07:27:06;;;;;;;7.68;6.35;;;;;;;14.96;69.19;101244.88;4970020;28;20450;-64
2022/05/31 07:29:31;;;;;;;8.27;5.90;;;;;;;15.16;70.09;101244.38;4969957;28;20539;-63
2022/05/31 07:31:56;;;;;;;6.55;5.95;;;;;;;15.31;68.34;101242.94;4969692;28;20046;-64
2022/05/31 07:34:23;;;;;;;7.88;6.07;;;;;;;15.28;67.95;101243.72;4970585;28;20035;-63
2022/05/31 07:36:49;;;;;;;6.03;5.35;;;;;;;15.20;67.67;101245.31;4969710;28;20114;-63
2022/05/31 07:39:18;;;;;;;7.05;5.65;;;;;;;15.09;68.44;101245.97;4970320;28;20485;-64
2022/05/31 07:41:46;;;;;;;7.90;5.15;;;;;;;15.24;67.71;101245.41;4969506;28;20034;-63
2022/05/31 07:44:12;;;;;;;8.30;4.72;;;;;;;15.29;65.28;101237.66;4970015;28;20023;-63
2022/05/31 07:46:38;;;;;;;8.07;4.97;;;;;;;15.34;64.18;101242.97;4969940;28;20030;-64
2022/05/31 07:49:04;;;;;;;6.97;5.38;;;;;;;15.48;64.52;101241.50;4970100;28;20265;-63
2022/05/31 07:51:29;;;;;;;5.75;4.88;;;;;;;15.61;63.64;101232.13;4969311;28;20026;-63
2022/05/31 07:53:55;;;;;;;7.10;5.20;;;;;;;15.69;65.20;101234.00;4969254;28;20046;-64
2022/05/31 07:56:21;;;;;;;5.97;4.93;;;;;;;16.03;64.35;101220.66;4969649;28;20062;-64
2022/05/31 07:58:46;;;;;;;6.78;5.32;;;;;;;16.29;64.08;101221.03;4969560;28;20050;-64
2022/05/31 08:01:14;;;;;;;6.32;5.20;;;;;;;16.50;60.88;101230.03;4969534;28;20545;-64
2022/05/31 08:03:40;;;;;;;5.88;5.25;;;;;;;16.75;59.58;101224.22;4969318;28;20027;-63
2022/05/31 08:06:08;;;;;;;7.88;4.93;;;;;;;16.88;61.53;101230.50;4969249;28;20033;-64
2022/05/31 08:08:34;;;;;;;8.07;5.53;;;;;;;16.89;60.86;101227.88;4969151;28;20038;-64
2022/05/31 08:11:08;;;;;;;9.02;5.65;;;;;;;16.49;60.31;101224.78;4969050;28;20038;-64
2022/05/31 08:13:33;;;;;;;6.97;5.47;;;;;;;16.63;62.12;101228.47;4968607;28;20031;-63
2022/05/31 08:16:00;;;;;;;7.05;5.97;;;;;;;16.76;62.67;101226.88;4969546;28;20113;-63
2022/05/31 08:18:25;;;;;;;8.95;6.90;;;;;;;17.08;61.94;101221.97;4969596;28;20531;-64
2022/05/31 08:20:56;;;;;;;6.38;5.78;;;;;;;17.32;60.18;101231.00;4968995;28;20051;-64
2022/05/31 08:26:25;;;;;;;6.53;5.93;;;;;;;17.50;56.77;101209.34;4969639;28;20136;-64
2022/05/31 08:28:51;;;;;;;7.45;6.55;;;;;;;17.61;58.93;101217.31;4950560;28;20494;-64
2022/05/31 08:31:22;;;;;;;6.90;5.57;;;;;;;17.74;58.30;101203.44;4950555;28;20058;-63
2022/05/31 08:33:47;;;;;;;;;;;;;;;18.27;59.84;101209.94;4963108;28;20038;-64
2022/05/31 08:36:13;;;;;;;5.82;5.20;;;;;;;18.38;57.11;101204.75;4968918;28;20366;-64
2022/05/31 08:38:40;;;;;;;6.80;5.45;;;;;;;18.66;56.68;101204.88;4968924;28;20451;-63
2022/05/31 08:41:27;;;;;;;7.25;5.32;;;;;;;18.64;55.18;101202.25;4969363;28;20027;-64
2022/05/31 08:44:04;;;;;;;9.23;5.38;;;;;;;18.83;55.26;101204.94;4969377;28;20022;-64
2022/05/31 08:46:54;;;;;;;5.68;5.18;;;;;;;18.90;52.54;101203.22;4969709;28;20034;-64
2022/05/31 08:52:53;;;;;;;8.50;6.05;;;;;;;18.95;54.12;101218.09;4968551;28;20141;-64
2022/05/31 08:58:17;;;;;;;6.50;5.80;;;;;;;18.61;51.43;101210.09;4969238;28;20541;-64
2022/05/31 09:00:45;;;;;;;5.85;5.30;;;;;;;18.80;54.71;101215.41;4968642;28;20094;-64
2022/05/31 09:03:18;;;;;;;7.72;5.18;;;;;;;18.88;54.25;101204.94;4967897;28;20117;-64
2022/05/31 09:05:55;;;;;;;6.72;6.10;;;;;;;19.00;52.59;101209.34;4968413;28;20030;-64
2022/05/31 09:08:32;;;;;;;7.43;6.10;;;;;;;19.10;53.01;101203.28;4968498;28;20026;-64
2022/05/31 09:11:07;;;;;;;9.02;6.07;;;;;;;19.05;53.34;101197.97;4967985;28;20035;-64
2022/05/31 09:13:53;;;;;;;7.78;5.60;;;;;;;18.77;53.00;101202.28;4968229;28;20271;-64
2022/05/31 09:16:31;;;;;;;6.35;5.72;;;;;;;18.79;55.45;101206.69;4968491;28;20034;-64
2022/05/31 09:19:02;;;;;;;5.75;5.18;;;;;;;18.64;51.92;101206.59;4968037;28;20031;-64
2022/05/31 09:21:34;;;;;;;;;;;;;;;18.25;52.55;101204.69;4968488;28;20402;-65
2022/05/31 09:24:00;;;;;;;5.38;4.93;;;;;;;18.36;54.34;101204.75;4968329;28;19914;-64
2022/05/31 09:26:41;;;;;;;5.78;4.97;;;;;;;18.35;52.83;101210.84;4968179;28;20037;-64
2022/05/31 09:29:11;;;;;;;5.53;5.03;;;;;;;18.76;52.83;101205.78;4967956;28;20141;-64
2022/05/31 09:31:42;;;;;;;7.10;5.77;;;;;;;18.91;52.35;101208.47;4968223;28;20373;-64
2022/05/31 09:34:29;;;;;;;6.15;4.90;;;;;;;19.05;50.95;101202.38;4967990;28;20376;-64
2022/05/31 09:37:09;;;;;;;7.32;5.18;;;;;;;19.19;49.71;101205.06;4967783;28;20030;-64
2022/05/31 09:40:04;;;;;;;4.53;3.90;;;;;;;19.02;48.89;101202.34;4968206;28;20031;-64
2022/05/31 09:42:39;;;;;;;4.45;4.05;;;;;;;18.95;50.69;101197.09;4960037;28;20380;-64
2022/05/31 09:45:17;;;;;;;5.40;4.60;;;;;;;18.73;49.24;101204.03;4968084;28;20561;-64
2022/05/31 09:47:42;;;;;;;6.07;5.10;;;;;;;18.78;50.24;101209.31;4967548;28;20057;-64
2022/05/31 09:50:08;;;;;;;6.93;5.90;;;;;;;18.93;51.57;101197.97;4967828;28;20070;-64
2022/05/31 09:52:42;;;;;;;6.05;5.53;;;;;;;18.82;52.09;101211.03;4967972;28;20109;-64
2022/05/31 09:58:08;;;;;;;5.10;4.70;;;;;;;19.12;51.20;101204.19;4949398;28;20042;-64
2022/05/31 10:00:35;;;;;;;5.97;5.25;;;;;;;19.32;49.18;101195.44;4949079;28;20019;-64
2022/05/31 10:03:13;;;;;;;5.65;5.15;;;;;;;19.28;49.11;101191.94;4932316;29;20035;-64
2022/05/31 10:05:40;;;;;;;6.30;5.70;;;;;;;19.30;49.75;101197.22;4949485;28;20126;-64
2022/05/31 10:08:15;;;;;;;6.05;5.43;;;;;;;19.10;49.11;101194.50;4949703;28;20027;-64
2022/05/31 10:10:46;;;;;;;6.15;5.55;;;;;;;18.61;50.55;101196.97;4961326;28;20026;-65
2022/05/31 10:13:13;;;;;;;6.43;5.18;;;;;;;18.21;53.52;101193.28;4968224;28;20474;-64
2022/05/31 10:15:49;;;;;;;8.75;5.93;;;;;;;18.08;52.79;101194.06;4967782;28;20034;-64
2022/05/31 10:18:48;;;;;;;6.22;5.63;;;;;;;17.83;53.08;101189.53;4948859;28;20529;-65
2022/05/31 10:21:40;;;;;;;6.80;5.55;;;;;;;17.65;54.22;101185.00;4947400;28;20110;-64
2022/05/31 10:24:05;;;;;;;6.28;5.68;;;;;;;17.61;53.55;101191.13;4963150;28;20109;-64
2022/05/31 10:26:33;;;;;;;7.25;5.20;;;;;;;17.37;54.54;101182.16;4967612;28;20113;-64
2022/05/31 10:29:01;;;;;;;5.60;5.00;;;;;;;17.17;55.43;101188.09;4967664;28;20088;-64
2022/05/31 10:31:35;;;;;;;7.95;5.65;;;;;;;17.11;55.29;101185.38;4967412;28;20031;-64
2022/05/31 10:34:44;;;;;;;5.85;5.30;;;;;;;17.09;55.60;101194.97;4967701;28;20030;-64
2022/05/31 10:37:32;;;;;;;5.85;5.25;;;;;;;16.82;56.58;101197.25;4970595;28;20022;-64
2022/05/31 10:40:06;;;;;;;5.85;5.20;;;;;;;16.87;56.01;101192.09;4971429;28;20035;-64
2022/05/31 10:42:34;;;;;;;5.28;4.80;;;;;;;16.86;56.31;101185.09;4971448;28;20027;-64
2022/05/31 10:45:04;;;;;;;5.25;4.68;;;;;;;16.83;56.32;101182.44;4971066;28;20030;-64
2022/05/31 10:47:29;;;;;;;5.82;4.90;;;;;;;16.85;56.57;101183.34;4970943;28;20030;-64
2022/05/31 10:49:55;;;;;;;5.47;4.97;;;;;;;16.72;55.82;101182.31;4970118;28;20034;-64
2022/05/31 10:52:49;;;;;;;6.72;6.03;;;;;;;16.68;55.80;101182.28;4971018;28;20038;-64
2022/05/31 10:55:32;;;;;;;8.77;5.95;;;;;;;16.68;56.63;101177.06;4971136;28;20097;-65
2022/05/31 10:58:05;;;;;;;7.00;5.43;;;;;;;16.73;56.89;101179.72;4970915;28;20056;-64
2022/05/31 11:00:55;;;;;;;7.18;6.47;;;;;;;16.74;56.49;101181.50;4970782;28;20397;-64
2022/05/31 11:03:32;;;;;;;8.55;5.40;;;;;;;16.68;55.75;101174.44;4969908;28;20479;-64
2022/05/31 11:06:20;;;;;;;6.80;6.07;;;;;;;16.63;55.88;101175.25;4970901;28;20026;-64
2022/05/31 11:12:28;;;;;;;6.43;5.53;;;;;;;16.46;56.34;101188.97;4952568;28;20085;-64
2022/05/31 11:15:19;;;;;;;6.90;6.20;;;;;;;16.46;57.32;101186.38;4964653;28;20062;-64
2022/05/31 11:17:56;;;;;;;6.13;5.55;;;;;;;16.36;55.97;101193.22;4970773;28;20118;-64
2022/05/31 11:20:41;;;;;;;6.07;5.47;;;;;;;16.29;56.59;101197.50;4970119;28;20042;-64
2022/05/31 11:23:22;;;;;;;7.13;6.43;;;;;;;16.20;58.56;101199.97;4951512;28;20477;-64
2022/05/31 11:25:57;;;;;;;6.20;5.32;;;;;;;16.12;60.40;101204.22;4951817;28;20102;-64
2022/05/31 11:29:09;;;;;;;6.55;5.68;;;;;;;16.03;61.74;101192.75;4951578;28;20097;-64
2022/05/31 11:32:12;;;;;;;5.90;5.30;;;;;;;15.95;59.19;101202.19;4944997;29;20027;-64
2022/05/31 11:34:55;;;;;;;7.53;5.72;;;;;;;15.79;59.30;101201.97;4936088;29;20071;-64
2022/05/31 11:37:50;;;;;;;6.05;5.10;;;;;;;15.63;60.11;101208.66;4966706;28;20090;-64
2022/05/31 11:40:45;;;;;;;4.95;4.47;;;;;;;15.53;59.14;101206.72;4970047;28;20505;-64
2022/05/31 11:43:17;;;;;;;5.10;4.38;;;;;;;15.53;60.12;101202.38;4969965;28;20394;-63
2022/05/31 11:46:09;;;;;;;3.70;3.30;;;;;;;15.42;56.46;101203.94;4969300;28;20479;-64
2022/05/31 11:48:34;;;;;;;4.82;4.35;;;;;;;15.37;59.54;101206.47;4950292;28;20034;-64
2022/05/31 11:51:20;;;;;;;5.40;4.90;;;;;;;15.23;61.61;101201.00;4951376;28;20039;-64
2022/05/31 11:54:23;;;;;;;4.82;4.40;;;;;;;15.18;62.34;101210.47;4951231;28;20465;-64
2022/05/31 11:57:04;;;;;;;5.25;4.35;;;;;;;15.31;61.66;101196.78;4964280;28;20057;-64
2022/05/31 11:59:38;;;;;;;3.65;2.95;;;;;;;15.54;59.66;101201.53;4969624;28;20531;-64
2022/05/31 12:02:17;;;;;;;2.85;2.65;;;;;;;15.93;57.31;101196.06;4969851;28;20033;-64
2022/05/31 12:04:50;;;;;;;5.80;2.83;;;;;;;16.19;55.71;101193.88;4969559;28;20373;-64